Time;durP1;ratioP1;P1;durP2;ratioP2;P2;SDS_P1;SDS_P2;PMS_P1;PMS_P2;Temp;Humidity;BMP_temperature;BMP_pressure;BME280_temperature;BME280_humidity;BME280_pressure;Samples;Min_cycle;Max_cycle;Signal;HPM_P1;HPM_P2
2023/07/24 00:01:13;;;;;;;599.80;565.93;;;12.80;93.10;;;;;;4983192;28;20635;-68
2023/07/24 00:03:41;;;;;;;584.10;551.00;;;13.00;92.70;;;;;;4982233;28;20281;-68
2023/07/24 00:06:08;;;;;;;530.00;501.30;;;13.20;92.60;;;;;;4983040;28;20189;-67
2023/07/24 00:08:35;;;;;;;533.47;505.07;;;13.30;92.00;;;;;;4986674;28;20189;-70
2023/07/24 00:11:04;;;;;;;488.60;462.97;;;13.30;91.30;;;;;;4990568;28;20181;-68
2023/07/24 00:13:31;;;;;;;484.17;459.17;;;13.40;91.00;;;;;;4986237;28;20194;-69
2023/07/24 00:15:59;;;;;;;442.10;419.60;;;13.70;90.70;;;;;;4985790;28;20637;-68
2023/07/24 00:18:26;;;;;;;426.07;404.23;;;13.70;89.90;;;;;;4982955;28;20673;-68
2023/07/24 00:20:53;;;;;;;419.17;397.87;;;13.80;89.10;;;;;;4984361;28;20225;-69
2023/07/24 00:23:20;;;;;;;377.07;357.97;;;13.90;89.20;;;;;;4989493;28;20212;-68
2023/07/24 00:25:48;;;;;;;354.60;337.07;;;14.10;88.40;;;;;;4986794;28;20608;-67
2023/07/24 00:28:15;;;;;;;323.00;307.00;;;14.20;87.80;;;;;;4979624;28;20189;-67
2023/07/24 00:30:45;;;;;;;295.03;280.37;;;14.30;87.50;;;;;;4987537;28;20317;-67
2023/07/24 00:33:12;;;;;;;275.00;260.93;;;14.50;87.00;;;;;;4985152;28;20190;-67
2023/07/24 00:35:39;;;;;;;195.37;184.77;;;14.80;86.60;;;;;;4987561;28;20182;-67
2023/07/24 00:38:07;;;;;;;241.17;228.63;;;15.00;85.50;;;;;;4985799;28;20186;-72
2023/07/24 00:40:34;;;;;;;199.43;188.77;;;15.30;85.00;;;;;;4979494;28;20230;-69
2023/07/24 00:43:01;;;;;;;117.80;110.83;;;15.40;84.40;;;;;;4983285;28;20197;-73
2023/07/24 00:45:29;;;;;;;96.33;90.67;;;15.50;83.00;;;;;;4985242;28;20182;-73
2023/07/24 00:47:56;;;;;;;76.87;72.13;;;15.60;82.90;;;;;;4983348;28;20181;-70
2023/07/24 00:50:25;;;;;;;53.00;48.83;;;15.80;82.10;;;;;;4970543;28;20188;-67
2023/07/24 00:52:52;;;;;;;46.73;43.30;;;15.50;80.60;;;;;;4984600;28;20189;-66
2023/07/24 00:55:20;;;;;;;36.70;34.10;;;15.30;80.70;;;;;;4981843;28;20182;-67
2023/07/24 00:57:47;;;;;;;42.93;39.70;;;15.20;81.00;;;;;;4978126;28;20174;-65
2023/07/24 01:00:15;;;;;;;33.20;31.03;;;15.20;81.40;;;;;;4980564;28;20679;-65
2023/07/24 01:02:45;;;;;;;41.03;38.03;;;15.00;81.30;;;;;;4983615;28;20676;-66
2023/07/24 01:05:17;;;;;;;26.43;24.17;;;15.00;82.00;;;;;;4988338;28;20269;-65
2023/07/24 01:07:44;;;;;;;33.57;30.17;;;14.80;81.20;;;;;;4979889;28;20186;-66
2023/07/24 01:10:12;;;;;;;33.00;30.23;;;14.80;82.00;;;;;;4986546;28;20182;-65
2023/07/24 01:13:08;;;;;;;39.07;36.37;;;14.80;82.40;;;;;;4983524;28;20195;-66
2023/07/24 01:16:17;;;;;;;31.90;29.43;;;14.90;82.80;;;;;;4978088;28;20680;-65
2023/07/24 01:18:47;;;;;;;26.37;24.13;;;14.90;82.10;;;;;;4972934;28;20547;-67
2023/07/24 01:21:18;;;;;;;17.70;15.87;;;15.10;81.70;;;;;;4981725;28;20241;-66
2023/07/24 01:23:52;;;;;;;19.03;17.10;;;15.10;80.10;;;;;;4987649;28;20188;-64
2023/07/24 01:26:23;;;;;;;20.37;18.37;;;15.20;80.30;;;;;;4988748;28;20186;-65
2023/07/24 01:28:51;;;;;;;17.03;15.30;;;15.30;80.80;;;;;;4981100;28;20519;-65
2023/07/24 01:31:18;;;;;;;21.00;17.40;;;15.10;80.30;;;;;;4985617;28;20234;-64
2023/07/24 01:33:46;;;;;;;16.83;15.03;;;15.20;80.70;;;;;;4979690;28;20554;-65
2023/07/24 01:36:15;;;;;;;13.33;11.87;;;15.10;80.20;;;;;;4982063;28;20179;-64
2023/07/24 01:38:42;;;;;;;15.47;13.97;;;15.10;80.00;;;;;;4988360;28;20197;-65
2023/07/24 01:41:10;;;;;;;14.47;10.87;;;15.20;80.10;;;;;;4980380;28;20245;-65
2023/07/24 01:43:37;;;;;;;14.77;9.87;;;15.20;79.20;;;;;;4987012;28;20204;-65
2023/07/24 01:46:05;;;;;;;17.97;11.37;;;15.20;78.80;;;;;;4982985;28;21402;-64
2023/07/24 01:48:32;;;;;;;14.67;10.90;;;15.40;79.40;;;;;;4987725;28;20209;-67
2023/07/24 01:50:59;;;;;;;13.23;9.47;;;15.40;78.90;;;;;;4986723;28;20215;-64
2023/07/24 01:53:27;;;;;;;22.43;9.27;;;15.40;78.70;;;;;;4985853;28;20201;-66
2023/07/24 01:55:54;;;;;;;16.03;8.80;;;15.50;78.60;;;;;;4985777;28;20225;-63
2023/07/24 01:58:21;;;;;;;15.87;7.27;;;15.60;78.30;;;;;;4982494;28;20281;-63
2023/07/24 02:00:49;;;;;;;14.20;7.50;;;15.70;77.50;;;;;;4981917;28;20336;-63
2023/07/24 02:03:16;;;;;;;16.67;7.27;;;15.80;76.60;;;;;;4982223;28;20199;-63
2023/07/24 02:05:49;;;;;;;14.67;6.03;;;16.00;77.00;;;;;;4985514;28;20280;-64
2023/07/24 02:08:16;;;;;;;16.70;6.07;;;16.10;76.00;;;;;;4981308;28;20699;-65
2023/07/24 02:10:43;;;;;;;11.07;6.03;;;16.10;75.40;;;;;;4988538;28;20186;-65
2023/07/24 02:13:10;;;;;;;10.87;5.03;;;16.20;76.20;;;;;;4982261;28;20187;-65
2023/07/24 02:15:39;;;;;;;11.73;4.70;;;16.00;74.40;;;;;;4988504;28;20597;-63
2023/07/24 02:18:07;;;;;;;8.90;3.83;;;16.00;74.90;;;;;;4987636;28;20246;-65
2023/07/24 02:20:34;;;;;;;10.50;5.10;;;16.00;74.30;;;;;;4989589;28;20241;-68
2023/07/24 02:23:01;;;;;;;10.77;4.30;;;16.20;74.70;;;;;;4985187;28;20693;-65
2023/07/24 02:25:28;;;;;;;10.07;3.93;;;16.10;74.30;;;;;;4987073;28;20182;-66
2023/07/24 02:27:56;;;;;;;8.67;3.77;;;16.20;73.40;;;;;;4989027;28;20184;-66
2023/07/24 02:30:23;;;;;;;8.50;3.87;;;16.30;73.90;;;;;;4980538;28;20323;-63
2023/07/24 02:32:50;;;;;;;11.03;4.10;;;16.30;73.30;;;;;;4981081;28;20283;-69
2023/07/24 02:35:18;;;;;;;10.00;3.53;;;16.40;73.50;;;;;;4984937;28;20196;-67
2023/07/24 02:37:45;;;;;;;10.33;3.97;;;16.50;72.90;;;;;;4989924;28;20207;-64
2023/07/24 02:40:13;;;;;;;10.47;4.30;;;16.50;72.70;;;;;;4989279;28;20218;-63
2023/07/24 02:42:40;;;;;;;11.30;3.60;;;17.00;72.10;;;;;;4985833;28;20559;-64
2023/07/24 02:45:10;;;;;;;7.20;3.33;;;17.10;70.50;;;;;;4989238;28;20201;-63
2023/07/24 02:47:38;;;;;;;10.50;2.80;;;17.00;71.10;;;;;;4987020;28;20197;-64
2023/07/24 02:50:05;;;;;;;7.80;2.70;;;16.90;72.50;;;;;;4986688;28;20201;-63
2023/07/24 02:52:33;;;;;;;8.37;2.83;;;17.00;71.70;;;;;;4982898;28;20198;-64
2023/07/24 02:55:00;;;;;;;7.43;2.33;;;17.20;70.20;;;;;;4987145;28;20210;-64
2023/07/24 02:57:27;;;;;;;12.43;2.70;;;17.20;70.60;;;;;;4984971;28;20232;-66
2023/07/24 02:59:55;;;;;;;10.43;2.67;;;16.90;70.80;;;;;;4983892;28;20672;-65
2023/07/24 03:02:22;;;;;;;8.77;2.17;;;16.80;71.10;;;;;;4984529;28;20209;-64
2023/07/24 03:04:49;;;;;;;15.37;2.63;;;16.70;70.70;;;;;;4991532;28;20628;-67
2023/07/24 03:07:17;;;;;;;6.30;2.20;;;16.70;71.20;;;;;;4984235;28;20252;-66
2023/07/24 03:09:44;;;;;;;9.37;2.80;;;16.80;71.20;;;;;;4984149;28;20220;-67
2023/07/24 03:12:11;;;;;;;2.37;1.63;;;16.90;70.80;;;;;;4988079;28;20248;-68
2023/07/24 03:14:38;;;;;;;9.50;2.20;;;17.00;69.20;;;;;;4987802;28;20652;-64
2023/07/24 03:17:06;;;;;;;12.77;3.10;;;16.90;70.40;;;;;;4985448;28;20186;-64
2023/07/24 03:19:33;;;;;;;12.00;2.40;;;17.00;70.40;;;;;;4985955;28;20630;-67
2023/07/24 03:22:00;;;;;;;10.07;2.67;;;17.00;71.00;;;;;;4989985;28;20216;-67
2023/07/24 03:24:28;;;;;;;7.40;2.50;;;16.80;70.00;;;;;;4986682;28;20660;-65
2023/07/24 03:26:55;;;;;;;8.73;2.60;;;16.80;71.00;;;;;;4986215;28;20266;-63
2023/07/24 03:29:22;;;;;;;8.33;2.90;;;16.80;71.30;;;;;;4987674;28;20196;-64
2023/07/24 03:31:50;;;;;;;12.73;2.43;;;16.70;71.00;;;;;;4987222;28;20232;-63
2023/07/24 03:34:17;;;;;;;12.53;2.50;;;16.60;71.60;;;;;;4986647;28;20670;-67
2023/07/24 03:36:44;;;;;;;10.67;2.53;;;16.50;71.40;;;;;;4986710;28;20201;-63
2023/07/24 03:39:12;;;;;;;10.37;2.60;;;16.60;71.90;;;;;;4983143;28;20227;-64
2023/07/24 03:41:40;;;;;;;8.67;2.40;;;16.60;71.90;;;;;;4985367;28;20193;-65
2023/07/24 03:44:07;;;;;;;7.37;2.63;;;16.60;72.00;;;;;;4988614;28;20216;-64
2023/07/24 03:46:35;;;;;;;7.23;2.33;;;16.60;70.70;;;;;;4988394;28;20629;-64
2023/07/24 03:49:02;;;;;;;10.00;2.57;;;16.50;70.70;;;;;;4984660;28;20283;-65
2023/07/24 03:51:30;;;;;;;8.63;2.30;;;16.60;70.80;;;;;;4987374;28;20517;-66
2023/07/24 03:53:57;;;;;;;10.60;2.67;;;16.60;71.20;;;;;;4985649;28;20184;-64
2023/07/24 03:56:24;;;;;;;9.20;2.70;;;16.70;71.30;;;;;;4985276;28;20228;-64
2023/07/24 03:58:53;;;;;;;10.50;2.50;;;16.90;70.70;;;;;;4984915;28;20190;-64
2023/07/24 04:01:21;;;;;;;7.07;2.47;;;17.00;70.50;;;;;;4983491;28;20212;-65
2023/07/24 04:03:48;;;;;;;12.23;2.60;;;17.00;70.20;;;;;;4986319;28;20324;-64
2023/07/24 04:06:16;;;;;;;11.63;3.00;;;17.00;70.40;;;;;;4984679;28;20198;-63
2023/07/24 04:08:44;;;;;;;14.80;2.80;;;17.10;70.40;;;;;;4986129;28;20189;-64
2023/07/24 04:11:11;;;;;;;16.30;2.60;;;17.10;70.50;;;;;;4984958;28;20648;-64
2023/07/24 04:13:39;;;;;;;9.97;3.13;;;17.10;69.80;;;;;;4966715;28;20645;-63
2023/07/24 04:16:06;;;;;;;16.67;3.07;;;17.00;69.90;;;;;;4981552;28;20236;-64
2023/07/24 04:18:33;;;;;;;8.47;2.60;;;17.30;69.90;;;;;;4983595;28;20197;-64
2023/07/24 04:21:01;;;;;;;15.63;2.90;;;18.00;68.40;;;;;;4966463;28;20274;-65
2023/07/24 04:23:28;;;;;;;12.13;2.50;;;18.50;65.80;;;;;;4983986;28;20186;-64
2023/07/24 04:25:55;;;;;;;13.37;2.93;;;19.20;64.50;;;;;;4985604;28;20555;-64
2023/07/24 04:28:22;;;;;;;9.40;2.17;;;19.40;62.80;;;;;;4983451;28;20313;-65
2023/07/24 04:30:50;;;;;;;5.70;1.80;;;19.80;60.70;;;;;;4987424;28;20257;-64
2023/07/24 04:33:17;;;;;;;8.70;2.50;;;20.20;61.00;;;;;;4983985;28;20190;-64
2023/07/24 04:35:47;;;;;;;7.13;2.13;;;20.30;59.00;;;;;;4987057;28;20640;-64
2023/07/24 04:38:15;;;;;;;8.67;2.20;;;20.30;59.00;;;;;;4982712;28;20316;-64
2023/07/24 04:40:45;;;;;;;8.20;2.27;;;20.10;58.70;;;;;;4987775;28;20225;-65
2023/07/24 04:43:12;;;;;;;7.77;2.03;;;20.30;58.40;;;;;;4985156;28;20183;-65
2023/07/24 04:45:40;;;;;;;6.30;2.00;;;20.20;59.00;;;;;;4983088;28;20189;-65
2023/07/24 04:48:07;;;;;;;8.07;2.30;;;20.40;56.00;;;;;;4982888;28;20213;-64
2023/07/24 04:50:34;;;;;;;8.27;2.57;;;20.00;57.20;;;;;;4985419;28;20186;-65
2023/07/24 04:53:02;;;;;;;9.97;2.70;;;19.90;56.90;;;;;;4983126;28;20236;-66
2023/07/24 04:55:29;;;;;;;7.63;1.90;;;20.40;56.40;;;;;;4981678;28;20182;-67
2023/07/24 04:57:56;;;;;;;8.73;2.23;;;20.40;55.40;;;;;;4988271;28;20182;-67
2023/07/24 05:00:24;;;;;;;7.73;2.50;;;20.30;56.70;;;;;;4987183;28;20217;-64
2023/07/24 05:02:51;;;;;;;6.67;2.17;;;20.90;55.90;;;;;;4970151;28;20201;-65
2023/07/24 05:05:19;;;;;;;6.57;2.60;;;20.70;56.20;;;;;;4981111;28;20265;-65
2023/07/24 05:07:46;;;;;;;9.10;2.37;;;20.80;56.60;;;;;;4979623;28;20590;-65
2023/07/24 05:10:14;;;;;;;8.43;2.37;;;21.00;56.40;;;;;;4985472;28;20177;-66
2023/07/24 05:12:44;;;;;;;6.23;2.10;;;21.00;56.40;;;;;;4984829;28;20555;-66
2023/07/24 05:15:11;;;;;;;7.13;2.37;;;20.80;55.90;;;;;;4983745;28;20686;-65
2023/07/24 05:17:38;;;;;;;8.90;2.00;;;20.30;58.90;;;;;;4983123;28;20656;-64
2023/07/24 05:20:07;;;;;;;13.17;2.30;;;20.50;56.20;;;;;;4985273;28;20943;-64
2023/07/24 05:22:34;;;;;;;10.50;2.03;;;20.70;55.50;;;;;;4986900;28;20237;-64
2023/07/24 05:25:01;;;;;;;7.57;2.20;;;20.30;57.00;;;;;;4982650;28;20183;-65
2023/07/24 05:27:29;;;;;;;8.43;2.57;;;20.80;56.80;;;;;;4987521;28;20182;-65
2023/07/24 05:29:57;;;;;;;8.83;2.67;;;20.70;56.60;;;;;;4985509;28;20182;-64
2023/07/24 05:32:24;;;;;;;8.07;2.20;;;21.00;56.30;;;;;;4947780;28;20233;-65
2023/07/24 05:34:52;;;;;;;7.23;2.37;;;21.40;55.10;;;;;;4950889;28;20246;-65
2023/07/24 05:37:19;;;;;;;9.87;2.40;;;21.30;53.90;;;;;;4945724;28;20179;-64
2023/07/24 05:39:46;;;;;;;5.47;2.30;;;21.30;55.60;;;;;;4948660;28;20214;-66
2023/07/24 05:42:13;;;;;;;9.00;2.37;;;21.80;54.80;;;;;;4947046;29;20192;-65
2023/07/24 05:44:41;;;;;;;7.03;2.20;;;21.90;53.40;;;;;;4948943;29;20191;-65
2023/07/24 05:47:08;;;;;;;5.70;2.27;;;22.10;51.90;;;;;;4941362;29;20213;-68
2023/07/24 05:49:35;;;;;;;5.67;2.00;;;21.80;53.80;;;;;;4948800;29;20194;-66
2023/07/24 05:52:03;;;;;;;6.67;1.90;;;21.80;53.70;;;;;;4948111;29;20186;-67
2023/07/24 05:54:30;;;;;;;7.30;2.80;;;21.80;52.90;;;;;;4953249;29;20205;-67
2023/07/24 05:56:57;;;;;;;14.73;2.23;;;21.90;53.10;;;;;;4951129;28;20258;-68
2023/07/24 05:59:25;;;;;;;6.13;2.00;;;21.50;53.00;;;;;;4954195;29;20214;-64
2023/07/24 06:01:52;;;;;;;9.13;2.23;;;21.30;53.50;;;;;;4948265;28;20186;-67
2023/07/24 06:04:19;;;;;;;9.67;2.50;;;21.40;54.30;;;;;;4950946;29;20274;-66
2023/07/24 06:06:47;;;;;;;9.50;2.50;;;21.10;54.90;;;;;;4951029;28;20200;-69
2023/07/24 06:09:14;;;;;;;8.13;2.27;;;20.90;54.30;;;;;;4950628;28;20194;-67
2023/07/24 06:11:41;;;;;;;7.07;2.50;;;20.90;55.00;;;;;;4950634;28;20247;-68
2023/07/24 06:14:09;;;;;;;6.33;2.13;;;21.10;54.30;;;;;;4950395;29;20195;-66
2023/07/24 06:16:36;;;;;;;10.53;2.47;;;20.70;54.10;;;;;;4944538;29;20654;-67
2023/07/24 06:19:03;;;;;;;7.03;2.40;;;20.00;56.20;;;;;;4950665;28;20599;-65
2023/07/24 06:21:31;;;;;;;9.10;2.10;;;19.00;59.20;;;;;;4946739;28;20195;-64
2023/07/24 06:23:58;;;;;;;10.30;2.40;;;18.90;60.30;;;;;;4946844;29;20518;-65
2023/07/24 06:26:25;;;;;;;9.87;2.73;;;18.90;60.00;;;;;;4946531;29;20215;-65
2023/07/24 06:28:53;;;;;;;7.17;2.60;;;18.40;62.10;;;;;;4947022;29;20194;-63
2023/07/24 06:31:20;;;;;;;12.10;2.50;;;17.80;64.00;;;;;;4970308;28;20234;-64
2023/07/24 06:33:47;;;;;;;10.00;2.70;;;17.40;65.80;;;;;;4987434;28;20189;-64
2023/07/24 06:36:15;;;;;;;7.90;2.50;;;17.30;66.40;;;;;;4987914;28;20189;-63
2023/07/24 06:38:43;;;;;;;10.03;2.70;;;17.00;66.90;;;;;;4990526;28;20189;-64
2023/07/24 06:41:11;;;;;;;15.70;2.97;;;16.90;67.50;;;;;;4986689;28;20316;-64
2023/07/24 06:43:38;;;;;;;11.67;2.63;;;16.80;68.00;;;;;;4979038;28;20265;-64
2023/07/24 06:46:05;;;;;;;18.97;4.20;;;16.70;69.40;;;;;;4985740;28;20212;-63
2023/07/24 06:48:33;;;;;;;11.30;3.00;;;16.50;69.50;;;;;;4982338;28;20196;-65
2023/07/24 06:51:00;;;;;;;10.03;3.37;;;16.40;70.30;;;;;;4992770;28;20204;-66
2023/07/24 06:53:27;;;;;;;10.33;3.57;;;16.30;71.00;;;;;;4982486;28;20237;-64
2023/07/24 06:55:55;;;;;;;8.53;3.07;;;16.30;71.70;;;;;;4981745;28;20196;-64
2023/07/24 06:58:22;;;;;;;7.67;3.30;;;16.20;71.80;;;;;;4988906;28;20279;-65
2023/07/24 07:00:49;;;;;;;9.10;3.03;;;16.20;72.30;;;;;;4985248;28;20229;-66
2023/07/24 07:03:16;;;;;;;12.67;3.60;;;16.10;72.60;;;;;;4991796;28;20192;-66
2023/07/24 07:05:44;;;;;;;11.33;2.97;;;16.00;73.00;;;;;;4985926;28;20201;-66
2023/07/24 07:08:11;;;;;;;10.43;3.57;;;15.80;73.60;;;;;;4991134;28;20327;-66
2023/07/24 07:10:38;;;;;;;10.70;2.97;;;15.70;73.70;;;;;;4985131;28;20833;-64
2023/07/24 07:13:06;;;;;;;12.50;3.60;;;15.70;74.00;;;;;;4989883;28;20605;-65
2023/07/24 07:15:33;;;;;;;9.70;2.83;;;15.60;74.80;;;;;;4987714;28;20193;-65
2023/07/24 07:18:00;;;;;;;9.40;3.00;;;15.60;75.10;;;;;;4985681;28;20217;-67
2023/07/24 07:20:28;;;;;;;9.90;3.60;;;15.50;75.20;;;;;;4988997;28;20361;-65
2023/07/24 07:22:55;;;;;;;15.40;3.63;;;15.40;75.40;;;;;;4984258;28;20590;-65
2023/07/24 07:25:22;;;;;;;6.53;2.80;;;15.30;75.60;;;;;;4988116;28;20550;-65
2023/07/24 07:27:50;;;;;;;14.30;4.00;;;15.30;75.80;;;;;;4982225;28;20188;-65
2023/07/24 07:30:17;;;;;;;12.23;4.57;;;15.20;76.20;;;;;;4984743;28;20191;-68
2023/07/24 07:32:44;;;;;;;13.03;3.60;;;15.10;76.50;;;;;;4989154;28;20261;-66
2023/07/24 07:35:12;;;;;;;12.27;4.20;;;15.00;76.50;;;;;;4986784;28;20239;-64
2023/07/24 07:37:39;;;;;;;9.60;3.37;;;15.00;76.70;;;;;;4982756;28;20179;-64
2023/07/24 07:40:07;;;;;;;17.57;4.07;;;14.90;77.00;;;;;;4985375;28;20219;-66
2023/07/24 07:42:34;;;;;;;14.57;4.20;;;14.90;77.50;;;;;;4983387;28;20183;-65
2023/07/24 07:45:02;;;;;;;16.50;4.50;;;14.80;77.80;;;;;;4984656;28;20593;-67
2023/07/24 07:47:30;;;;;;;9.10;3.93;;;14.80;78.00;;;;;;4983742;28;20182;-64
2023/07/24 07:49:57;;;;;;;10.60;4.20;;;14.80;78.20;;;;;;4987726;28;20222;-66
2023/07/24 07:52:24;;;;;;;12.90;4.10;;;14.70;78.40;;;;;;4981213;28;20204;-65
2023/07/24 07:54:51;;;;;;;10.37;4.67;;;14.70;78.70;;;;;;4988351;28;20212;-64
2023/07/24 07:57:19;;;;;;;9.83;4.30;;;14.60;78.80;;;;;;4985286;28;20644;-64
2023/07/24 07:59:46;;;;;;;12.60;4.40;;;14.50;79.30;;;;;;4982932;28;20227;-65
2023/07/24 08:02:13;;;;;;;14.10;4.50;;;14.40;79.40;;;;;;4986628;28;20202;-65
2023/07/24 08:04:41;;;;;;;15.00;4.67;;;14.30;79.60;;;;;;4989516;28;20224;-67
2023/07/24 08:07:08;;;;;;;14.23;4.80;;;14.30;80.20;;;;;;4984803;28;20181;-65
2023/07/24 08:09:37;;;;;;;11.00;4.70;;;14.20;80.30;;;;;;4984747;28;20198;-66
2023/07/24 08:12:06;;;;;;;11.47;4.40;;;14.20;80.70;;;;;;4983672;28;20193;-64
2023/07/24 08:14:33;;;;;;;16.47;5.20;;;14.20;81.20;;;;;;4987488;28;20178;-64
2023/07/24 08:17:00;;;;;;;13.87;5.23;;;14.10;81.40;;;;;;4986171;28;20190;-64
2023/07/24 08:19:30;;;;;;;10.10;4.80;;;14.00;81.60;;;;;;4983778;28;20214;-64
2023/07/24 08:21:58;;;;;;;11.93;5.00;;;13.90;81.70;;;;;;4984551;28;20188;-64
2023/07/24 08:24:25;;;;;;;18.87;5.43;;;13.90;81.90;;;;;;4979019;28;20204;-64
2023/07/24 08:26:52;;;;;;;11.20;4.83;;;13.80;82.30;;;;;;4985631;28;20183;-65
2023/07/24 08:29:19;;;;;;;7.63;3.93;;;13.80;82.10;;;;;;4984453;28;20197;-64
2023/07/24 08:31:47;;;;;;;16.67;4.87;;;13.70;82.30;;;;;;4984545;28;20272;-69
2023/07/24 08:34:14;;;;;;;11.70;4.63;;;13.70;82.50;;;;;;4982058;28;20190;-66
2023/07/24 08:36:41;;;;;;;14.00;5.17;;;13.70;82.60;;;;;;4984153;28;20187;-64
2023/07/24 08:39:09;;;;;;;15.90;4.33;;;13.60;82.80;;;;;;4986513;28;20273;-64
2023/07/24 08:41:37;;;;;;;19.13;5.83;;;13.50;82.70;;;;;;4979065;28;20186;-63
2023/07/24 08:44:07;;;;;;;14.97;5.27;;;13.50;82.90;;;;;;4984844;28;20179;-64
2023/07/24 08:46:41;;;;;;;13.17;4.83;;;13.50;83.10;;;;;;4983414;28;20217;-64
2023/07/24 08:49:13;;;;;;;15.13;6.20;;;13.40;83.10;;;;;;4983702;28;20691;-64
2023/07/24 08:51:42;;;;;;;18.57;6.20;;;13.30;83.30;;;;;;4985189;28;20236;-65
2023/07/24 08:54:09;;;;;;;16.50;7.23;;;13.30;83.60;;;;;;4977561;28;20181;-65
2023/07/24 08:56:40;;;;;;;15.37;7.57;;;13.30;83.90;;;;;;4983449;28;20186;-72
2023/07/24 08:59:07;;;;;;;16.87;7.77;;;13.30;83.90;;;;;;4982341;28;20578;-66
2023/07/24 09:01:35;;;;;;;15.93;7.60;;;13.30;84.50;;;;;;4986659;28;20190;-64
2023/07/24 09:04:02;;;;;;;18.23;8.33;;;13.30;84.40;;;;;;4986945;28;20191;-64
2023/07/24 09:06:30;;;;;;;19.50;8.63;;;13.20;84.70;;;;;;4981009;28;20653;-65
2023/07/24 09:08:57;;;;;;;16.87;9.13;;;13.20;84.90;;;;;;4981118;28;20185;-64
2023/07/24 09:11:24;;;;;;;18.07;8.33;;;13.20;84.90;;;;;;4986118;28;20182;-64
2023/07/24 09:13:52;;;;;;;16.17;8.60;;;13.10;84.80;;;;;;4987616;28;20181;-63
2023/07/24 09:16:26;;;;;;;16.57;8.77;;;13.00;85.00;;;;;;4985146;28;20265;-65
2023/07/24 09:18:54;;;;;;;18.50;7.77;;;13.00;85.00;;;;;;4981962;28;20189;-65
2023/07/24 09:21:32;;;;;;;17.53;7.57;;;12.90;85.20;;;;;;4986675;28;20296;-64
2023/07/24 09:24:13;;;;;;;17.77;8.07;;;13.00;85.40;;;;;;4985120;28;20189;-65
2023/07/24 09:26:51;;;;;;;18.63;8.83;;;12.90;85.40;;;;;;4984845;28;20178;-65
2023/07/24 09:29:20;;;;;;;17.13;8.33;;;12.90;85.80;;;;;;4983793;28;20703;-65
2023/07/24 09:31:47;;;;;;;15.37;7.70;;;12.90;85.50;;;;;;4986910;28;20234;-65
2023/07/24 09:34:19;;;;;;;15.67;8.30;;;12.90;85.40;;;;;;4962920;28;20194;-64
2023/07/24 09:36:46;;;;;;;19.40;9.27;;;12.80;85.60;;;;;;4988440;28;20182;-64
2023/07/24 09:39:13;;;;;;;24.00;10.10;;;12.80;85.70;;;;;;4982984;28;20234;-64
2023/07/24 09:41:41;;;;;;;18.33;9.80;;;12.80;86.00;;;;;;4981040;28;20182;-65
2023/07/24 09:44:12;;;;;;;18.73;11.57;;;12.80;86.30;;;;;;4985009;28;20174;-66
2023/07/24 09:46:41;;;;;;;21.23;12.97;;;12.80;86.40;;;;;;4986504;28;20705;-64
2023/07/24 09:49:08;;;;;;;30.70;18.33;;;12.70;86.40;;;;;;4983374;28;20521;-64
2023/07/24 09:51:36;;;;;;;24.60;15.47;;;12.60;86.70;;;;;;4985760;28;20265;-64
2023/07/24 09:54:26;;;;;;;30.33;16.43;;;12.60;87.10;;;;;;4981630;28;20634;-64
2023/07/24 09:56:54;;;;;;;28.57;14.37;;;12.60;87.20;;;;;;4978814;28;20251;-66
2023/07/24 09:59:22;;;;;;;26.73;14.70;;;12.60;87.20;;;;;;4977767;28;20178;-64
2023/07/24 10:01:51;;;;;;;24.93;13.60;;;12.60;87.30;;;;;;4984710;28;20652;-64
2023/07/24 10:04:19;;;;;;;25.67;13.57;;;12.50;87.20;;;;;;4977425;28;20250;-64
2023/07/24 10:06:47;;;;;;;18.63;12.10;;;12.50;87.20;;;;;;4985948;28;20186;-64
2023/07/24 10:09:15;;;;;;;22.73;13.47;;;12.50;87.40;;;;;;4983502;28;20190;-65
2023/07/24 10:11:43;;;;;;;23.90;14.77;;;12.50;87.50;;;;;;4985382;28;20196;-64
2023/07/24 10:14:10;;;;;;;30.40;17.00;;;12.50;87.60;;;;;;4985492;28;21571;-64
2023/07/24 10:16:38;;;;;;;32.77;19.87;;;12.50;87.60;;;;;;4989765;28;20317;-68
2023/07/24 10:19:17;;;;;;;33.47;19.17;;;12.50;87.60;;;;;;4985047;28;20509;-65
2023/07/24 10:21:49;;;;;;;29.03;18.47;;;12.50;87.60;;;;;;4982814;28;20186;-64
2023/07/24 10:24:16;;;;;;;28.80;16.80;;;12.50;87.80;;;;;;4981382;28;20656;-65
2023/07/24 10:26:44;;;;;;;24.17;15.17;;;12.50;87.90;;;;;;4978578;28;20187;-64
2023/07/24 10:29:12;;;;;;;24.57;15.33;;;12.40;87.80;;;;;;4985214;28;20645;-64
2023/07/24 10:31:40;;;;;;;23.80;15.60;;;12.40;87.90;;;;;;4985617;28;20224;-65
2023/07/24 10:34:08;;;;;;;19.77;14.90;;;12.40;88.00;;;;;;4983209;28;20194;-64
2023/07/24 10:36:38;;;;;;;25.20;16.17;;;12.30;88.00;;;;;;4988774;28;20186;-65
2023/07/24 10:39:15;;;;;;;22.07;15.47;;;12.30;88.20;;;;;;4984246;28;20190;-65
2023/07/24 10:41:44;;;;;;;22.17;15.73;;;12.20;88.20;;;;;;4986038;28;20612;-64
2023/07/24 10:44:12;;;;;;;23.83;16.67;;;12.20;88.30;;;;;;4982519;28;20194;-65
2023/07/24 10:46:44;;;;;;;23.97;17.60;;;12.20;88.40;;;;;;4986534;28;20273;-64
2023/07/24 10:49:12;;;;;;;27.20;18.83;;;12.30;88.90;;;;;;4984399;28;20197;-64
2023/07/24 10:51:40;;;;;;;24.93;19.27;;;12.20;88.70;;;;;;4982748;28;20641;-64
2023/07/24 10:54:07;;;;;;;28.20;19.40;;;12.20;88.70;;;;;;4984959;28;20189;-64
2023/07/24 10:56:37;;;;;;;27.13;18.20;;;12.20;88.70;;;;;;4986854;28;20185;-64
2023/07/24 10:59:05;;;;;;;23.23;18.57;;;12.10;88.80;;;;;;4983817;28;20561;-65
2023/07/24 11:01:33;;;;;;;22.57;19.20;;;12.10;89.00;;;;;;4981985;28;20197;-65
2023/07/24 11:04:01;;;;;;;24.67;19.23;;;12.10;89.10;;;;;;4983774;28;20195;-65
2023/07/24 11:06:29;;;;;;;25.10;20.60;;;12.10;89.20;;;;;;4988881;28;20190;-64
2023/07/24 11:08:58;;;;;;;26.13;22.40;;;12.20;89.20;;;;;;4985122;28;20281;-66
2023/07/24 11:11:30;;;;;;;29.03;23.70;;;12.20;89.30;;;;;;4986358;28;20776;-65
2023/07/24 11:13:57;;;;;;;26.23;23.47;;;12.20;89.30;;;;;;4986361;28;20179;-65
2023/07/24 11:16:25;;;;;;;30.73;25.63;;;12.00;89.20;;;;;;4984266;28;20276;-64
2023/07/24 11:18:52;;;;;;;31.13;26.30;;;12.10;89.50;;;;;;4985188;28;20186;-65
2023/07/24 11:21:20;;;;;;;28.87;25.93;;;12.10;89.50;;;;;;4989074;28;20222;-68
2023/07/24 11:23:52;;;;;;;29.17;26.27;;;12.10;89.60;;;;;;4987708;28;20178;-69
2023/07/24 11:26:21;;;;;;;30.40;26.13;;;12.00;89.60;;;;;;4980046;28;20687;-64
2023/07/24 11:28:49;;;;;;;29.00;26.23;;;12.00;89.70;;;;;;4982543;28;20178;-67
2023/07/24 11:31:19;;;;;;;31.43;26.73;;;11.90;89.70;;;;;;4986809;28;20716;-65
2023/07/24 11:33:49;;;;;;;31.77;28.50;;;11.90;89.70;;;;;;4984825;28;20210;-65
2023/07/24 11:36:16;;;;;;;34.23;28.03;;;11.80;89.90;;;;;;4982647;28;20269;-64
2023/07/24 11:38:49;;;;;;;31.50;28.30;;;11.80;90.00;;;;;;4985839;28;20617;-64
2023/07/24 11:41:17;;;;;;;30.80;27.57;;;11.80;90.00;;;;;;4982035;28;20226;-64
2023/07/24 11:43:49;;;;;;;32.47;29.27;;;11.80;90.20;;;;;;4991416;28;20190;-65
2023/07/24 11:46:31;;;;;;;35.00;31.07;;;11.80;90.40;;;;;;4982623;28;20192;-64
2023/07/24 11:48:59;;;;;;;37.67;33.77;;;11.80;90.40;;;;;;4963550;28;20579;-65
2023/07/24 11:51:29;;;;;;;38.27;33.13;;;11.80;90.20;;;;;;4980496;28;20186;-65
2023/07/24 11:54:07;;;;;;;38.63;34.40;;;11.70;90.20;;;;;;4987605;28;20221;-65
2023/07/24 11:56:35;;;;;;;38.17;34.00;;;11.70;90.20;;;;;;4986904;28;20190;-64
2023/07/24 11:59:13;;;;;;;36.73;33.33;;;11.70;90.20;;;;;;4986701;28;20186;-65
2023/07/24 12:01:41;;;;;;;36.17;32.57;;;11.70;90.10;;;;;;4987614;28;20270;-64
2023/07/24 12:04:08;;;;;;;36.10;32.93;;;11.60;90.00;;;;;;4982498;28;20182;-65
2023/07/24 12:06:36;;;;;;;38.87;35.43;;;11.50;89.90;;;;;;4980203;28;20179;-64
2023/07/24 12:09:08;;;;;;;38.97;33.43;;;11.50;90.00;;;;;;4986790;28;20232;-64
2023/07/24 12:11:41;;;;;;;40.23;36.03;;;11.60;90.20;;;;;;4981800;28;20193;-65
2023/07/24 12:14:08;;;;;;;40.97;36.93;;;11.50;90.20;;;;;;4981352;28;20673;-64
2023/07/24 12:16:37;;;;;;;39.90;35.80;;;11.50;90.10;;;;;;4979496;28;20197;-64
2023/07/24 12:19:04;;;;;;;44.27;39.97;;;11.50;90.20;;;;;;4980019;28;20178;-64
2023/07/24 12:21:31;;;;;;;48.13;43.80;;;11.50;90.40;;;;;;4985568;28;20248;-65
2023/07/24 12:23:59;;;;;;;48.33;43.83;;;11.50;90.20;;;;;;4986145;28;20190;-64
2023/07/24 12:26:27;;;;;;;49.30;45.33;;;11.50;90.40;;;;;;4990045;28;20182;-64
2023/07/24 12:28:54;;;;;;;53.03;48.63;;;11.40;90.30;;;;;;4981735;28;20186;-65
2023/07/24 12:31:22;;;;;;;52.17;47.60;;;11.40;90.40;;;;;;4981791;28;20281;-65
2023/07/24 12:33:49;;;;;;;51.07;46.60;;;11.30;90.40;;;;;;4979373;28;20187;-65
2023/07/24 12:36:16;;;;;;;51.97;47.33;;;11.30;90.60;;;;;;4984796;28;20195;-65
2023/07/24 12:38:44;;;;;;;49.70;45.37;;;11.20;90.50;;;;;;4986082;28;20216;-65
2023/07/24 12:41:11;;;;;;;49.70;44.97;;;11.20;90.50;;;;;;4984445;28;20672;-64